Terminal Aerodrome Forecast
Issued by NWS

Home | Current Version | Previous Version | Text Only | Print | Product List | Glossary On
Versions: 1 2 3 4 5 6 7 8 9 10 11 12
000
FTUS46 KMFR 021739
TAFLMT
TAF
KLMT 021739Z 0218/0318 VRB03KT P6SM SKC
     FM030000 33012KT P6SM BKN060 BKN200
     FM030500 VRB03KT P6SM SCT060 BKN200=

USA.gov is the U.S. government's official web portal to all federal, state and local government web resources and services.